createdAt,value
2023-05-23T04:39:10.467Z,16.81
2023-05-23T04:41:45.518Z,16.96
2023-05-23T04:44:26.841Z,17.13
2023-05-23T04:47:09.747Z,17.36
2023-05-23T04:49:55.141Z,17.62
2023-05-23T04:52:22.716Z,17.82
2023-05-23T04:54:50.858Z,17.96
2023-05-23T04:57:18.577Z,18.06
2023-05-23T04:59:46.797Z,18.16
2023-05-23T05:02:14.310Z,18.31
2023-05-23T05:04:42.072Z,18.49
2023-05-23T05:07:10.920Z,18.67
2023-05-23T05:09:40.991Z,18.84
2023-05-23T05:12:12.304Z,19.01
2023-05-23T05:14:40.617Z,19.20
2023-05-23T05:17:08.371Z,19.34
2023-05-23T05:19:47.944Z,19.47
2023-05-23T05:22:15.491Z,19.62
2023-05-23T05:24:43.980Z,19.79
2023-05-23T05:27:12.045Z,19.98
2023-05-23T05:29:39.779Z,20.16
2023-05-23T05:32:09.345Z,20.32
2023-05-23T05:34:45.451Z,20.45
2023-05-23T05:42:10.612Z,20.72
2023-05-23T05:50:20.470Z,20.79
2023-05-23T05:53:26.788Z,20.90
2023-05-23T05:56:55.046Z,21.02
2023-05-23T05:59:32.416Z,21.14
2023-05-23T06:02:10.462Z,21.25
2023-05-23T06:04:39.721Z,21.34
2023-05-23T06:07:10.242Z,21.42
2023-05-23T06:09:38.231Z,21.53
2023-05-23T06:12:06.534Z,21.62
2023-05-23T06:14:38.083Z,21.71
2023-05-23T06:17:09.148Z,21.77
2023-05-23T06:20:02.793Z,21.82
2023-05-23T06:23:56.526Z,21.93
2023-05-23T06:27:50.850Z,22.09
2023-05-23T06:39:00.685Z,22.67
2023-05-23T06:41:40.628Z,22.81
2023-05-23T06:44:11.969Z,22.92
2023-05-23T06:47:02.004Z,23.01
2023-05-23T06:49:32.855Z,23.08
2023-05-23T06:52:03.280Z,23.09
2023-05-23T06:54:32.808Z,23.09
2023-05-23T07:01:16.490Z,23.08
2023-05-23T07:04:13.069Z,23.16
2023-05-23T07:11:05.432Z,23.33
2023-05-23T07:14:06.190Z,23.36
2023-05-23T07:17:34.337Z,23.47
2023-05-23T07:20:08.470Z,23.62
2023-05-23T07:22:37.594Z,23.74
2023-05-23T07:25:06.017Z,23.83
2023-05-23T07:27:35.048Z,23.87
2023-05-23T07:30:03.744Z,23.90
2023-05-23T07:32:32.781Z,23.98
2023-05-23T07:35:03.150Z,24.09
2023-05-23T07:37:31.157Z,24.07
2023-05-23T07:40:01.316Z,23.99
2023-05-23T07:42:31.576Z,23.77
2023-05-23T07:45:01.726Z,23.67
2023-05-23T07:47:32.897Z,23.56
2023-05-23T07:50:02.805Z,23.47
2023-05-23T07:52:33.238Z,23.50
2023-05-23T07:55:01.378Z,23.62
2023-05-23T07:57:29.385Z,23.77
2023-05-23T07:59:57.122Z,23.93
2023-05-23T08:02:25.209Z,23.94
2023-05-23T08:04:53.592Z,23.87
2023-05-23T08:07:23.160Z,23.74
2023-05-23T08:10:07.595Z,23.65
2023-05-23T08:13:12.063Z,23.72
2023-05-23T08:16:08.639Z,23.93
2023-05-23T08:19:21.144Z,24.19
2023-05-23T08:21:49.880Z,24.46
2023-05-23T08:24:17.625Z,24.63
2023-05-23T08:26:46.052Z,24.82
2023-05-23T08:29:14.897Z,25.04
2023-05-23T08:32:04.096Z,25.18
2023-05-23T08:34:40.612Z,25.17
2023-05-23T08:37:37.358Z,25.12
2023-05-23T08:40:24.550Z,25.14
2023-05-23T08:42:59.366Z,25.30
2023-05-23T08:45:32.858Z,25.42
2023-05-23T08:48:04.234Z,25.54
2023-05-23T08:50:34.820Z,25.72
2023-05-23T08:53:02.734Z,25.92
2023-05-23T08:55:31.594Z,26.17
2023-05-23T08:58:00.749Z,26.37
2023-05-23T09:00:53.060Z,26.27
2023-05-23T09:03:22.317Z,26.05
2023-05-23T09:06:14.387Z,25.83
2023-05-23T09:08:43.224Z,25.61
2023-05-23T09:11:13.576Z,25.43
2023-05-23T09:13:42.118Z,25.31
2023-05-23T09:16:11.661Z,25.21
2023-05-23T09:18:49.062Z,25.12
2023-05-23T09:21:17.620Z,25.06
2023-05-23T09:24:20.715Z,25.00
2023-05-23T09:26:48.579Z,24.97
2023-05-23T09:29:20.920Z,24.98
2023-05-23T09:31:48.798Z,24.95
2023-05-23T09:34:16.505Z,24.87
2023-05-23T09:36:45.145Z,24.74
2023-05-23T09:39:13.175Z,24.58
2023-05-23T09:41:49.381Z,24.40
2023-05-23T09:57:22.302Z,24.30
2023-05-23T10:04:18.130Z,24.99
2023-05-23T10:07:01.968Z,25.25
2023-05-23T10:09:43.753Z,25.51
2023-05-23T10:12:37.030Z,25.76
2023-05-23T10:15:05.478Z,25.96
2023-05-23T10:18:01.529Z,26.07
2023-05-23T10:20:34.571Z,25.99
2023-05-23T10:23:03.492Z,25.83
2023-05-23T10:25:31.148Z,25.74
2023-05-23T10:28:01.581Z,25.88
2023-05-23T10:30:31.826Z,26.23
2023-05-23T10:33:00.526Z,26.60
2023-05-23T10:35:52.005Z,26.94
2023-05-23T10:38:41.451Z,27.15
2023-05-23T10:41:33.241Z,27.17
2023-05-23T10:44:38.357Z,27.00
2023-05-23T10:47:07.845Z,26.74
2023-05-23T10:49:40.031Z,26.64
2023-05-23T10:52:08.239Z,26.57
2023-05-23T10:54:56.917Z,26.59
2023-05-23T10:57:28.272Z,26.71
2023-05-23T10:59:55.910Z,26.83
2023-05-23T11:02:27.526Z,26.91
2023-05-23T11:05:28.357Z,26.93
2023-05-23T11:08:14.892Z,26.92
2023-05-23T11:11:01.934Z,26.91
2023-05-23T11:13:55.497Z,26.91
2023-05-23T11:16:30.794Z,26.87
2023-05-23T11:19:18.502Z,26.82
2023-05-23T11:21:46.925Z,26.85
2023-05-23T11:24:14.508Z,26.93
2023-05-23T11:26:42.924Z,27.01
2023-05-23T11:29:10.530Z,27.04
2023-05-23T11:31:38.807Z,27.08
2023-05-23T11:34:07.054Z,27.13
2023-05-23T11:36:35.252Z,27.08
2023-05-23T11:39:04.142Z,27.01
2023-05-23T11:41:31.938Z,26.96
2023-05-23T11:44:01.763Z,26.98
2023-05-23T11:46:29.500Z,26.97
2023-05-23T11:48:57.648Z,26.98
2023-05-23T11:51:25.189Z,26.99
2023-05-23T11:53:52.764Z,26.93
2023-05-23T11:56:21.153Z,26.91
2023-05-23T11:58:48.814Z,26.87
2023-05-23T12:01:16.843Z,26.88
2023-05-23T12:03:51.486Z,26.82
2023-05-23T12:06:19.387Z,26.79
2023-05-23T12:08:49.898Z,26.76
2023-05-23T12:11:18.737Z,26.77
2023-05-23T12:13:46.477Z,26.76
2023-05-23T12:16:15.221Z,26.81
2023-05-23T12:18:42.932Z,26.79
2023-05-23T12:21:11.035Z,26.81
2023-05-23T12:23:39.524Z,26.79
2023-05-23T12:26:07.390Z,26.74
2023-05-23T12:28:39.664Z,26.70
2023-05-23T12:31:10.999Z,26.60
2023-05-23T12:33:45.273Z,26.48
2023-05-23T12:36:12.852Z,26.37
2023-05-23T12:38:41.169Z,26.26
2023-05-23T12:41:12.312Z,26.15
2023-05-23T12:43:40.874Z,26.18
